Time;durP1;ratioP1;P1;durP2;ratioP2;P2;SDS_P1;SDS_P2;PMS_P1;PMS_P2;Temp;Humidity;BMP_temperature;BMP_pressure;BME280_temperature;BME280_humidity;BME280_pressure;Samples;Min_cycle;Max_cycle;Signal;HPM_P1;HPM_P2
2022/04/23 00:02:13;;;;;;;8.98;5.05;;;;;;;;;;5051210;28;20087;-76
2022/04/23 00:04:40;;;;;;;6.93;5.05;;;;;;;;;;5051758;28;20056;-77
2022/04/23 00:07:06;;;;;;;6.25;4.93;;;;;;;;;;5054552;28;20049;-76
2022/04/23 00:09:33;;;;;;;14.68;5.28;;;;;;;;;;5054749;28;20479;-76
2022/04/23 00:11:59;;;;;;;10.32;5.57;;;;;;;;;;5054635;28;20053;-76
2022/04/23 00:14:26;;;;;;;6.45;5.25;;;;;;;;;;5054687;28;20087;-76
2022/04/23 00:16:53;;;;;;;8.25;5.30;;;;;;;;;;5054378;28;20045;-76
2022/04/23 00:19:20;;;;;;;7.07;5.35;;;;;;;;;;5053302;28;20128;-76
2022/04/23 00:21:47;;;;;;;10.27;5.73;;;;;;;;;;5054466;28;20083;-76
2022/04/23 00:24:13;;;;;;;8.90;5.93;;;;;;;;;;5054539;28;20386;-76
2022/04/23 00:26:40;;;;;;;8.60;5.65;;;;;;;;;;5054278;28;20483;-76
2022/04/23 00:29:07;;;;;;;8.75;5.53;;;;;;;;;;5054165;28;20497;-77
2022/04/23 00:31:34;;;;;;;8.73;5.28;;;;;;;;;;5054923;28;20080;-77
2022/04/23 00:34:01;;;;;;;9.77;6.05;;;;;;;;;;5052825;28;20075;-76
2022/04/23 00:36:28;;;;;;;8.70;5.85;;;;;;;;;;5054317;28;20122;-76
2022/04/23 00:38:54;;;;;;;8.43;6.28;;;;;;;;;;5069614;28;20078;-77
2022/04/23 00:44:06;;;;;;;8.00;6.22;;;;;;;;;;5054281;28;20095;-76
2022/04/23 00:46:32;;;;;;;7.97;6.05;;;;;;;;;;5053840;28;20572;-76
2022/04/23 00:48:59;;;;;;;11.30;6.68;;;;;;;;;;5054056;28;20088;-76
2022/04/23 00:51:27;;;;;;;8.43;6.10;;;;;;;;;;5054123;28;20083;-76
2022/04/23 00:53:54;;;;;;;11.50;6.38;;;;;;;;;;5053873;28;20081;-76
2022/04/23 00:56:22;;;;;;;10.02;6.50;;;;;;;;;;5053933;28;20085;-76
2022/04/23 00:58:49;;;;;;;10.82;7.00;;;;;;;;;;5053631;28;20106;-76
2022/04/23 01:01:15;;;;;;;9.95;7.22;;;;;;;;;;5053781;28;20087;-76
2022/04/23 01:03:45;;;;;;;10.70;6.55;;;;;;;;;;5053737;28;20049;-76
2022/04/23 01:06:12;;;;;;;7.97;6.28;;;;;;;;;;5053790;28;20056;-77
2022/04/23 01:08:39;;;;;;;13.38;7.20;;;;;;;;;;5053811;28;20472;-76
2022/04/23 01:11:05;;;;;;;10.60;6.15;;;;;;;;;;5053696;28;20084;-75
2022/04/23 01:13:32;;;;;;;10.20;6.95;;;;;;;;;;5053178;28;20084;-76
2022/04/23 01:15:59;;;;;;;10.25;6.53;;;;;;;;;;5051827;28;20451;-76
2022/04/23 01:18:26;;;;;;;6.93;6.05;;;;;;;;;;5053358;28;20049;-76
2022/04/23 01:20:56;;;;;;;7.93;7.03;;;;;;;;;;5053368;28;20080;-76
2022/04/23 01:23:23;;;;;;;9.27;6.80;;;;;;;;;;5051910;28;20057;-76
2022/04/23 01:25:51;;;;;;;20.10;7.15;;;;;;;;;;5053056;28;20095;-76
2022/04/23 01:28:19;;;;;;;9.68;7.43;;;;;;;;;;5053344;28;20084;-76
2022/04/23 01:30:47;;;;;;;11.10;7.45;;;;;;;;;;5053030;28;20087;-76
2022/04/23 01:33:13;;;;;;;10.60;7.63;;;;;;;;;;5052919;28;20089;-76
2022/04/23 01:35:39;;;;;;;10.30;7.65;;;;;;;;;;5053072;28;20045;-75
2022/04/23 01:38:06;;;;;;;11.02;8.23;;;;;;;;;;5053140;28;20123;-76
2022/04/23 01:40:32;;;;;;;10.98;7.47;;;;;;;;;;5052716;28;20092;-75
2022/04/23 01:42:59;;;;;;;11.38;7.75;;;;;;;;;;5052967;28;20079;-76
2022/04/23 01:45:25;;;;;;;15.52;8.90;;;;;;;;;;5051053;28;20532;-76
2022/04/23 01:47:52;;;;;;;11.23;7.60;;;;;;;;;;5052702;28;20063;-76
2022/04/23 01:50:18;;;;;;;11.88;8.13;;;;;;;;;;5067790;28;20091;-76
2022/04/23 01:52:46;;;;;;;9.18;7.63;;;;;;;;;;5052460;28;20084;-75
2022/04/23 01:55:12;;;;;;;14.60;8.40;;;;;;;;;;5067994;28;20041;-75
2022/04/23 01:57:39;;;;;;;11.88;7.82;;;;;;;;;;5052497;28;20087;-75
2022/04/23 02:00:06;;;;;;;11.75;7.95;;;;;;;;;;5051474;28;20068;-75
2022/04/23 02:02:33;;;;;;;13.95;7.90;;;;;;;;;;5052245;28;20136;-75
2022/04/23 02:04:59;;;;;;;10.60;8.10;;;;;;;;;;5052604;28;20083;-75
2022/04/23 02:07:26;;;;;;;13.93;8.48;;;;;;;;;;5052344;28;20071;-75
2022/04/23 02:09:52;;;;;;;10.48;8.07;;;;;;;;;;5052136;28;20421;-75
2022/04/23 02:12:18;;;;;;;12.05;8.30;;;;;;;;;;5052363;28;20081;-75
2022/04/23 02:14:45;;;;;;;12.63;8.15;;;;;;;;;;5052260;28;20103;-76
2022/04/23 02:17:11;;;;;;;15.63;8.52;;;;;;;;;;5050976;28;20041;-76
2022/04/23 02:19:38;;;;;;;14.57;8.93;;;;;;;;;;5051094;28;20124;-76
2022/04/23 02:22:05;;;;;;;9.40;8.32;;;;;;;;;;5052049;28;20080;-76
2022/04/23 02:24:31;;;;;;;14.55;9.82;;;;;;;;;;5051008;28;20381;-75
2022/04/23 02:26:58;;;;;;;14.43;9.32;;;;;;;;;;5052188;28;20370;-76
2022/04/23 02:29:25;;;;;;;14.13;9.10;;;;;;;;;;5051344;28;20056;-75
2022/04/23 02:31:51;;;;;;;13.43;8.65;;;;;;;;;;5052219;28;20482;-75
2022/04/23 02:34:21;;;;;;;12.38;9.18;;;;;;;;;;5051549;28;20080;-76
2022/04/23 02:36:47;;;;;;;22.67;9.43;;;;;;;;;;5050778;28;20060;-75
2022/04/23 02:39:14;;;;;;;15.10;9.57;;;;;;;;;;5050508;28;20079;-75
2022/04/23 02:41:40;;;;;;;13.88;9.70;;;;;;;;;;5052082;28;20123;-75
2022/04/23 02:44:07;;;;;;;16.38;9.52;;;;;;;;;;5051961;28;20432;-76
2022/04/23 02:46:33;;;;;;;18.63;10.27;;;;;;;;;;5052107;28;20459;-74
2022/04/23 02:49:00;;;;;;;18.58;9.88;;;;;;;;;;5050690;28;20045;-75
2022/04/23 02:51:26;;;;;;;17.10;10.18;;;;;;;;;;5051611;28;20080;-74
2022/04/23 02:53:53;;;;;;;18.33;10.13;;;;;;;;;;5051735;28;20107;-75
2022/04/23 02:56:19;;;;;;;18.42;10.57;;;;;;;;;;5051529;28;20044;-75
2022/04/23 02:58:46;;;;;;;17.25;11.25;;;;;;;;;;5051568;28;20049;-76
2022/04/23 03:01:12;;;;;;;20.70;10.40;;;;;;;;;;5051522;28;20091;-76
2022/04/23 03:03:40;;;;;;;15.32;9.80;;;;;;;;;;5050293;28;20049;-76
2022/04/23 03:06:07;;;;;;;16.08;10.98;;;;;;;;;;5051466;28;20061;-75
2022/04/23 03:08:37;;;;;;;16.33;10.50;;;;;;;;;;5051687;28;20056;-75
2022/04/23 03:11:06;;;;;;;18.05;10.52;;;;;;;;;;5051818;28;20071;-76
2022/04/23 03:13:34;;;;;;;18.10;10.55;;;;;;;;;;5051190;28;20091;-76
2022/04/23 03:16:01;;;;;;;19.27;10.68;;;;;;;;;;5051505;28;20080;-75
2022/04/23 03:18:28;;;;;;;17.77;11.13;;;;;;;;;;5051582;28;20073;-76
2022/04/23 03:20:55;;;;;;;16.10;10.60;;;;;;;;;;5051659;28;20075;-75
2022/04/23 03:23:21;;;;;;;17.80;10.63;;;;;;;;;;5051472;28;20084;-75
2022/04/23 03:25:48;;;;;;;14.65;10.82;;;;;;;;;;5051579;28;20053;-76
2022/04/23 03:28:15;;;;;;;16.02;11.18;;;;;;;;;;5051353;28;20481;-75
2022/04/23 03:30:44;;;;;;;17.83;10.85;;;;;;;;;;5051353;28;20088;-76
2022/04/23 03:33:10;;;;;;;20.00;11.48;;;;;;;;;;5050904;28;20061;-75
2022/04/23 03:35:37;;;;;;;17.85;11.30;;;;;;;;;;5050253;28;20079;-74
2022/04/23 03:38:03;;;;;;;18.98;11.32;;;;;;;;;;5051488;28;20072;-74
2022/04/23 03:40:30;;;;;;;20.08;11.48;;;;;;;;;;5053455;28;20049;-76
2022/04/23 03:42:57;;;;;;;18.88;12.15;;;;;;;;;;5053828;28;20092;-76
2022/04/23 03:45:24;;;;;;;18.00;10.40;;;;;;;;;;5053795;28;20041;-74
2022/04/23 03:47:50;;;;;;;27.30;12.10;;;;;;;;;;5054024;28;20452;-74
2022/04/23 03:50:17;;;;;;;15.77;10.27;;;;;;;;;;5055228;28;20278;-75
2022/04/23 03:52:44;;;;;;;22.45;10.48;;;;;;;;;;5053763;28;20068;-76
2022/04/23 03:55:11;;;;;;;14.82;11.13;;;;;;;;;;5054946;28;20135;-75
2022/04/23 03:57:50;;;;;;;17.80;10.27;;;;;;;;;;5054963;28;20130;-77
2022/04/23 04:00:19;;;;;;;21.75;11.88;;;;;;;;;;5054746;28;20477;-76
2022/04/23 04:02:46;;;;;;;16.40;12.25;;;;;;;;;;5054589;28;20049;-76
2022/04/23 04:05:13;;;;;;;21.25;12.27;;;;;;;;;;5054639;28;20048;-75
2022/04/23 04:07:40;;;;;;;16.30;11.32;;;;;;;;;;5054917;28;20044;-75
2022/04/23 04:10:08;;;;;;;17.08;11.02;;;;;;;;;;5054593;28;20045;-75
2022/04/23 04:12:34;;;;;;;19.92;11.73;;;;;;;;;;5054563;28;20084;-76
2022/04/23 04:15:02;;;;;;;20.20;11.77;;;;;;;;;;5054620;28;20123;-76
2022/04/23 04:17:29;;;;;;;17.48;11.73;;;;;;;;;;5053489;28;20080;-76
2022/04/23 04:19:55;;;;;;;19.15;11.80;;;;;;;;;;5054647;28;20067;-76
2022/04/23 04:22:22;;;;;;;18.92;11.60;;;;;;;;;;5054653;28;20080;-76
2022/04/23 04:24:48;;;;;;;18.85;12.10;;;;;;;;;;5054606;28;20048;-76
2022/04/23 04:27:15;;;;;;;18.55;12.02;;;;;;;;;;5054102;28;20083;-76
2022/04/23 04:29:41;;;;;;;19.15;12.23;;;;;;;;;;5054490;28;20087;-76
2022/04/23 04:32:08;;;;;;;20.83;12.50;;;;;;;;;;5054431;28;20045;-76
2022/04/23 04:34:34;;;;;;;17.20;11.52;;;;;;;;;;5053986;28;20085;-76
2022/04/23 04:37:11;;;;;;;17.20;11.93;;;;;;;;;;5053047;28;20052;-76
2022/04/23 04:39:39;;;;;;;20.38;12.73;;;;;;;;;;5054012;28;20088;-76
2022/04/23 04:42:05;;;;;;;;;;;;;;;;;;5054594;28;20049;-76
2022/04/23 04:44:32;;;;;;;21.77;12.48;;;;;;;;;;5054767;28;19951;-76
2022/04/23 04:46:59;;;;;;;19.40;12.30;;;;;;;;;;5054178;28;20499;-76
2022/04/23 04:49:25;;;;;;;21.95;12.55;;;;;;;;;;5053815;28;20057;-76
2022/04/23 04:51:52;;;;;;;19.83;13.60;;;;;;;;;;5053047;28;20126;-76
2022/04/23 04:54:21;;;;;;;17.37;12.73;;;;;;;;;;5053761;28;20053;-75
2022/04/23 04:56:48;;;;;;;21.75;13.02;;;;;;;;;;5053683;28;20052;-76
2022/04/23 04:59:15;;;;;;;20.70;13.17;;;;;;;;;;5054005;28;20060;-76
2022/04/23 05:01:41;;;;;;;24.75;14.52;;;;;;;;;;5053731;28;20670;-76
2022/04/23 05:04:08;;;;;;;19.73;13.30;;;;;;;;;;5053895;28;20084;-76
2022/04/23 05:06:35;;;;;;;20.77;14.00;;;;;;;;;;5053430;28;20084;-76
2022/04/23 05:09:02;;;;;;;23.35;13.65;;;;;;;;;;5053727;28;20076;-76
2022/04/23 05:11:28;;;;;;;20.25;13.77;;;;;;;;;;5053356;28;20105;-76
2022/04/23 05:13:55;;;;;;;25.25;13.82;;;;;;;;;;5053537;28;20130;-76
2022/04/23 05:16:21;;;;;;;22.42;13.70;;;;;;;;;;5053295;28;20077;-76
2022/04/23 05:18:48;;;;;;;24.05;15.15;;;;;;;;;;5053388;28;20103;-76
2022/04/23 05:21:14;;;;;;;20.25;13.60;;;;;;;;;;5053305;28;20045;-76
2022/04/23 05:23:41;;;;;;;24.17;14.95;;;;;;;;;;5053093;28;20102;-76
2022/04/23 05:26:09;;;;;;;27.25;15.18;;;;;;;;;;5053296;28;20098;-76
2022/04/23 05:28:35;;;;;;;24.65;15.13;;;;;;;;;;5052072;28;20138;-76
2022/04/23 05:31:02;;;;;;;24.65;15.43;;;;;;;;;;5053375;28;20091;-76
2022/04/23 05:33:29;;;;;;;19.93;13.87;;;;;;;;;;5052677;28;20083;-76
2022/04/23 05:35:55;;;;;;;25.70;15.10;;;;;;;;;;5053249;28;20077;-75
2022/04/23 05:38:22;;;;;;;23.85;16.00;;;;;;;;;;5052905;28;20118;-75
2022/04/23 05:40:48;;;;;;;22.90;15.30;;;;;;;;;;5053079;28;20139;-75
2022/04/23 05:43:15;;;;;;;27.73;15.60;;;;;;;;;;5052843;28;20053;-75
2022/04/23 05:45:43;;;;;;;21.05;14.80;;;;;;;;;;5052780;28;20087;-75
2022/04/23 05:48:09;;;;;;;19.15;14.57;;;;;;;;;;5053012;28;20473;-75
2022/04/23 05:50:36;;;;;;;30.35;15.48;;;;;;;;;;5052830;28;20461;-75
2022/04/23 05:53:02;;;;;;;24.52;15.27;;;;;;;;;;5052790;28;20088;-75
2022/04/23 05:55:29;;;;;;;23.38;15.75;;;;;;;;;;5052789;28;20084;-75
2022/04/23 05:57:55;;;;;;;22.38;14.80;;;;;;;;;;5052467;28;20509;-75
2022/04/23 06:00:22;;;;;;;20.90;16.15;;;;;;;;;;5052676;28;20073;-75
2022/04/23 06:02:48;;;;;;;20.92;14.85;;;;;;;;;;5052443;28;20049;-75
2022/04/23 06:05:15;;;;;;;22.83;16.08;;;;;;;;;;5052336;28;20127;-75
2022/04/23 06:07:41;;;;;;;22.90;15.05;;;;;;;;;;5052432;28;20091;-75
2022/04/23 06:10:08;;;;;;;25.13;15.27;;;;;;;;;;5052566;28;20175;-76
2022/04/23 06:12:35;;;;;;;22.73;14.17;;;;;;;;;;5052360;28;20084;-76
2022/04/23 06:15:01;;;;;;;21.10;14.77;;;;;;;;;;5052010;28;20052;-76
2022/04/23 06:17:28;;;;;;;22.65;15.15;;;;;;;;;;5052494;28;20098;-76
2022/04/23 06:19:55;;;;;;;24.27;15.23;;;;;;;;;;5051949;28;20114;-76
2022/04/23 06:22:22;;;;;;;22.67;13.60;;;;;;;;;;5052159;28;20094;-76
2022/04/23 06:24:49;;;;;;;23.33;15.02;;;;;;;;;;5052149;28;20470;-76
2022/04/23 06:27:15;;;;;;;22.88;14.50;;;;;;;;;;5052217;28;20049;-76
2022/04/23 06:29:42;;;;;;;28.02;15.27;;;;;;;;;;5052001;28;20550;-76
2022/04/23 06:32:09;;;;;;;24.58;15.25;;;;;;;;;;5052210;28;20049;-76
2022/04/23 06:34:37;;;;;;;22.63;15.10;;;;;;;;;;5051722;28;20428;-76
2022/04/23 06:37:04;;;;;;;23.67;15.63;;;;;;;;;;5052015;28;20068;-76
2022/04/23 06:39:31;;;;;;;21.07;15.20;;;;;;;;;;5051250;28;20431;-75
2022/04/23 06:41:58;;;;;;;20.15;14.88;;;;;;;;;;5052013;28;20314;-76
2022/04/23 06:44:24;;;;;;;22.00;15.10;;;;;;;;;;5052090;28;20126;-76
2022/04/23 06:46:51;;;;;;;22.75;15.57;;;;;;;;;;5051730;28;20088;-76
2022/04/23 06:49:17;;;;;;;25.23;14.98;;;;;;;;;;5051594;28;20045;-75
2022/04/23 06:51:43;;;;;;;20.67;15.00;;;;;;;;;;5051856;28;20087;-75
2022/04/23 06:54:10;;;;;;;21.48;14.45;;;;;;;;;;5051713;28;20056;-76
2022/04/23 06:56:38;;;;;;;24.20;14.20;;;;;;;;;;5051611;28;20114;-75
2022/04/23 06:59:05;;;;;;;24.70;15.20;;;;;;;;;;5051514;28;20085;-74
2022/04/23 07:01:31;;;;;;;21.13;13.95;;;;;;;;;;5051420;28;20076;-74
2022/04/23 07:03:58;;;;;;;22.60;13.93;;;;;;;;;;5050680;28;20128;-71
2022/04/23 07:06:25;;;;;;;21.30;13.73;;;;;;;;;;5051325;28;20099;-71
2022/04/23 07:08:51;;;;;;;23.52;13.65;;;;;;;;;;5051024;28;20550;-74
2022/04/23 07:11:17;;;;;;;20.90;13.40;;;;;;;;;;5050139;28;20080;-73
2022/04/23 07:13:44;;;;;;;25.55;14.30;;;;;;;;;;5051598;28;20448;-74
2022/04/23 07:16:11;;;;;;;18.13;13.23;;;;;;;;;;5054962;28;20102;-74
2022/04/23 07:18:41;;;;;;;21.17;13.48;;;;;;;;;;5055855;28;20049;-73
2022/04/23 07:21:07;;;;;;;18.17;13.70;;;;;;;;;;5051216;28;20073;-73
2022/04/23 07:26:19;;;;;;;20.33;13.07;;;;;;;;;;5054791;28;20083;-75
2022/04/23 07:28:46;;;;;;;19.52;13.50;;;;;;;;;;5055183;28;20401;-73
2022/04/23 07:31:12;;;;;;;18.80;12.57;;;;;;;;;;5043125;28;20092;-72
2022/04/23 07:39:08;;;;;;;19.00;13.27;;;;;;;;;;5041974;28;20128;-73
2022/04/23 07:41:36;;;;;;;20.80;13.27;;;;;;;;;;5054549;28;20048;-78
2022/04/23 07:44:03;;;;;;;19.23;13.57;;;;;;;;;;5051708;28;20095;-75
2022/04/23 07:46:30;;;;;;;18.92;13.18;;;;;;;;;;5053851;28;20085;-74
2022/04/23 07:48:58;;;;;;;;;;;;;;;;;;5054114;28;20044;-74
2022/04/23 07:51:27;;;;;;;;;;;;;;;;;;5054055;28;20001;-79
2022/04/23 07:53:57;;;;;;;21.27;12.95;;;;;;;;;;5053996;28;19932;-76
2022/04/23 07:56:23;;;;;;;21.00;13.60;;;;;;;;;;5053530;28;20045;-72
2022/04/23 07:58:50;;;;;;;20.27;12.82;;;;;;;;;;5053144;28;20087;-75
2022/04/23 08:01:16;;;;;;;18.85;13.65;;;;;;;;;;5051897;28;20554;-71
2022/04/23 08:03:43;;;;;;;17.83;13.00;;;;;;;;;;5053603;28;20045;-73
2022/04/23 08:06:10;;;;;;;20.27;13.23;;;;;;;;;;5053727;28;20079;-70
2022/04/23 08:08:37;;;;;;;19.40;13.95;;;;;;;;;;5053713;28;20052;-73
2022/04/23 08:11:03;;;;;;;23.35;13.40;;;;;;;;;;5053211;28;20510;-73
2022/04/23 08:13:29;;;;;;;24.23;12.70;;;;;;;;;;5053004;28;20085;-76
2022/04/23 08:15:56;;;;;;;19.27;12.93;;;;;;;;;;5051632;28;20488;-73
2022/04/23 08:18:22;;;;;;;17.70;12.63;;;;;;;;;;5052641;28;20064;-74
2022/04/23 08:20:49;;;;;;;21.42;13.35;;;;;;;;;;5053026;28;20072;-73
2022/04/23 08:23:16;;;;;;;18.52;12.88;;;;;;;;;;5053034;28;20132;-74
2022/04/23 08:25:44;;;;;;;17.75;13.10;;;;;;;;;;5051666;28;20137;-73
2022/04/23 08:31:06;;;;;;;18.42;12.68;;;;;;;;;;5049776;28;20045;-73
2022/04/23 08:36:18;;;;;;;15.95;12.45;;;;;;;;;;5048338;28;20135;-72
2022/04/23 08:38:44;;;;;;;19.50;12.25;;;;;;;;;;5049946;28;20103;-74
2022/04/23 08:41:12;;;;;;;18.55;12.18;;;;;;;;;;5051476;28;20081;-73
2022/04/23 08:43:41;;;;;;;20.20;12.68;;;;;;;;;;5046204;28;20096;-74
2022/04/23 08:46:07;;;;;;;18.10;11.80;;;;;;;;;;5051569;28;20068;-76
2022/04/23 08:48:37;;;;;;;18.42;11.95;;;;;;;;;;5052850;28;20492;-74
2022/04/23 08:51:09;;;;;;;18.15;12.05;;;;;;;;;;5052400;28;20098;-78
2022/04/23 08:53:38;;;;;;;17.02;11.57;;;;;;;;;;5052156;28;20053;-76
2022/04/23 08:56:04;;;;;;;14.85;11.80;;;;;;;;;;5052388;28;20103;-73
2022/04/23 08:58:31;;;;;;;16.13;11.88;;;;;;;;;;5051027;28;20084;-76
2022/04/23 09:00:57;;;;;;;15.65;11.00;;;;;;;;;;5052025;28;20447;-72
2022/04/23 09:03:23;;;;;;;16.55;11.70;;;;;;;;;;5052752;28;20128;-74
2022/04/23 09:05:53;;;;;;;14.20;11.35;;;;;;;;;;5052262;28;20538;-74
2022/04/23 09:08:19;;;;;;;17.92;12.00;;;;;;;;;;5052198;28;20040;-73
2022/04/23 09:10:47;;;;;;;17.45;11.25;;;;;;;;;;5052077;28;20068;-77
2022/04/23 09:13:32;;;;;;;16.75;11.20;;;;;;;;;;5052046;28;20053;-72
2022/04/23 09:24:46;;;;;;;15.90;11.07;;;;;;;;;;5048186;28;20089;-73
2022/04/23 09:27:13;;;;;;;18.35;10.93;;;;;;;;;;5051895;28;20069;-74
2022/04/23 09:29:42;;;;;;;19.50;12.00;;;;;;;;;;5046265;28;20079;-73
2022/04/23 09:32:09;;;;;;;15.93;12.05;;;;;;;;;;5052289;28;20461;-73
2022/04/23 09:34:36;;;;;;;15.63;12.52;;;;;;;;;;5051681;28;20103;-71
2022/04/23 09:37:02;;;;;;;14.35;11.50;;;;;;;;;;5051638;28;20473;-71
2022/04/23 09:39:34;;;;;;;17.10;11.93;;;;;;;;;;5039972;28;20681;-73
2022/04/23 09:42:12;;;;;;;16.83;11.63;;;;;;;;;;5043942;28;20102;-72
2022/04/23 09:44:39;;;;;;;16.63;12.85;;;;;;;;;;5047352;28;20565;-72
2022/04/23 09:47:05;;;;;;;15.05;11.23;;;;;;;;;;5052039;28;20476;-72
2022/04/23 09:49:32;;;;;;;18.77;12.63;;;;;;;;;;5052089;28;20056;-71
2022/04/23 09:52:02;;;;;;;13.05;11.68;;;;;;;;;;5051934;28;20310;-76
2022/04/23 09:54:29;;;;;;;14.45;12.07;;;;;;;;;;5051179;28;20072;-72
2022/04/23 09:56:56;;;;;;;16.85;11.60;;;;;;;;;;5051434;28;20045;-73
2022/04/23 09:59:23;;;;;;;18.17;12.57;;;;;;;;;;5051543;28;20110;-73
2022/04/23 10:01:50;;;;;;;18.67;12.98;;;;;;;;;;5030960;28;20061;-74
2022/04/23 10:04:20;;;;;;;17.45;13.90;;;;;;;;;;5046152;28;20088;-73
2022/04/23 10:06:49;;;;;;;18.45;13.93;;;;;;;;;;5051934;28;20095;-74
2022/04/23 10:09:17;;;;;;;17.92;14.57;;;;;;;;;;5051351;28;20049;-72
2022/04/23 10:11:54;;;;;;;15.05;12.73;;;;;;;;;;5037776;28;20106;-76
2022/04/23 10:14:23;;;;;;;16.98;13.10;;;;;;;;;;5041088;28;20048;-74
2022/04/23 10:16:50;;;;;;;14.52;13.02;;;;;;;;;;5051082;28;20503;-73
2022/04/23 10:19:17;;;;;;;15.90;13.05;;;;;;;;;;5051288;28;20076;-74
2022/04/23 10:21:59;;;;;;;15.75;14.13;;;;;;;;;;5047664;28;20497;-74
2022/04/23 10:24:54;;;;;;;18.45;13.73;;;;;;;;;;5050515;28;20080;-72
2022/04/23 10:27:25;;;;;;;16.50;13.93;;;;;;;;;;5047546;28;20076;-73
2022/04/23 10:29:55;;;;;;;18.65;13.70;;;;;;;;;;5050371;28;20072;-75
2022/04/23 10:32:22;;;;;;;15.50;13.38;;;;;;;;;;5049747;28;20076;-73
2022/04/23 10:34:49;;;;;;;17.93;13.67;;;;;;;;;;5050534;28;20056;-72
2022/04/23 10:37:23;;;;;;;18.08;13.70;;;;;;;;;;5050660;28;20313;-76
2022/04/23 10:39:52;;;;;;;16.77;14.55;;;;;;;;;;5047319;28;20045;-77
2022/04/23 10:42:19;;;;;;;15.57;13.90;;;;;;;;;;5048328;28;20527;-79
2022/04/23 10:44:46;;;;;;;19.42;14.05;;;;;;;;;;5049621;28;20486;-72
2022/04/23 10:47:15;;;;;;;18.23;13.93;;;;;;;;;;5050863;28;20049;-78
2022/04/23 10:49:43;;;;;;;17.23;13.75;;;;;;;;;;5046783;28;20099;-71
2022/04/23 10:52:09;;;;;;;17.25;13.70;;;;;;;;;;5050543;28;20076;-72
2022/04/23 10:54:45;;;;;;;16.00;14.25;;;;;;;;;;5050875;28;20114;-79
2022/04/23 10:57:13;;;;;;;17.30;14.63;;;;;;;;;;5047432;28;20159;-81
2022/04/23 10:59:47;;;;;;;20.45;15.85;;;;;;;;;;5050354;28;20049;-75
2022/04/23 11:02:23;;;;;;;17.67;14.93;;;;;;;;;;5050316;28;20083;-74
2022/04/23 11:12:14;;;;;;;18.05;14.93;;;;;;;;;;5049133;28;20053;-76
2022/04/23 11:13:26;;;;;;;18.90;13.93;;;;;;;;;;5050233;28;20084;-73
2022/04/23 11:16:06;;;;;;;17.08;14.00;;;;;;;;;;5050383;28;20052;-75
2022/04/23 11:18:33;;;;;;;19.17;14.63;;;;;;;;;;5049263;28;20051;-73
2022/04/23 11:21:10;;;;;;;18.02;14.65;;;;;;;;;;5050515;28;20071;-70
2022/04/23 11:23:37;;;;;;;15.48;13.88;;;;;;;;;;5049721;28;20497;-71
2022/04/23 11:26:04;;;;;;;16.98;14.13;;;;;;;;;;5049864;28;20076;-73
2022/04/23 11:28:30;;;;;;;17.92;14.48;;;;;;;;;;5049781;28;20048;-76
2022/04/23 11:30:57;;;;;;;18.25;14.40;;;;;;;;;;5050424;28;20076;-79
2022/04/23 11:33:23;;;;;;;18.33;14.70;;;;;;;;;;5050221;28;20076;-76
2022/04/23 11:35:50;;;;;;;19.42;14.38;;;;;;;;;;5047386;28;20045;-73
2022/04/23 11:38:17;;;;;;;16.05;13.98;;;;;;;;;;5039063;28;20084;-77
2022/04/23 11:40:43;;;;;;;17.27;14.25;;;;;;;;;;5045733;28;20095;-73
2022/04/23 11:43:12;;;;;;;18.15;14.27;;;;;;;;;;5044119;28;20493;-76
2022/04/23 11:45:45;;;;;;;16.70;14.07;;;;;;;;;;5043056;28;20088;-75
2022/04/23 11:48:12;;;;;;;17.77;14.35;;;;;;;;;;5050262;28;20052;-72
2022/04/23 11:50:38;;;;;;;16.58;14.15;;;;;;;;;;5049807;28;20086;-71
2022/04/23 11:53:05;;;;;;;15.88;14.10;;;;;;;;;;5049072;28;20080;-71
2022/04/23 11:55:32;;;;;;;16.08;14.38;;;;;;;;;;5049412;28;20052;-73
2022/04/23 11:58:04;;;;;;;15.55;13.98;;;;;;;;;;5048634;28;20087;-76
2022/04/23 12:00:34;;;;;;;16.65;14.90;;;;;;;;;;5050145;28;20091;-78
2022/04/23 12:03:01;;;;;;;17.17;15.38;;;;;;;;;;5053496;28;20476;-76
2022/04/23 12:05:34;;;;;;;17.65;14.73;;;;;;;;;;5053557;28;20128;-78
2022/04/23 12:08:01;;;;;;;16.67;14.60;;;;;;;;;;5053194;28;20048;-74
2022/04/23 12:10:28;;;;;;;16.15;14.45;;;;;;;;;;5053365;28;20110;-75
2022/04/23 12:13:06;;;;;;;16.70;13.73;;;;;;;;;;5053058;28;20520;-75
2022/04/23 12:15:33;;;;;;;15.00;13.57;;;;;;;;;;5051910;28;20049;-75
2022/04/23 12:17:59;;;;;;;16.80;14.30;;;;;;;;;;5052909;28;20040;-72
2022/04/23 12:20:26;;;;;;;16.83;15.27;;;;;;;;;;5053056;28;20443;-73
2022/04/23 12:22:54;;;;;;;16.55;14.55;;;;;;;;;;5053174;28;20080;-74
2022/04/23 12:25:21;;;;;;;15.57;12.80;;;;;;;;;;5052810;28;20080;-73
2022/04/23 12:42:05;;;;;;;15.82;14.32;;;;;;;;;;5050835;28;20072;-75
2022/04/23 12:44:32;;;;;;;15.35;13.88;;;;;;;;;;5052743;28;20071;-74
2022/04/23 12:47:00;;;;;;;15.73;14.23;;;;;;;;;;5052801;28;20118;-75
2022/04/23 12:49:46;;;;;;;14.93;13.68;;;;;;;;;;5052530;28;20053;-74
2022/04/23 12:52:14;;;;;;;13.65;12.55;;;;;;;;;;5052717;28;20114;-73
2022/04/23 12:54:41;;;;;;;13.27;12.07;;;;;;;;;;5052774;28;20107;-75
2022/04/23 12:57:14;;;;;;;13.43;12.10;;;;;;;;;;5053552;28;20111;-77
2022/04/23 12:59:40;;;;;;;14.02;12.88;;;;;;;;;;5053941;28;20088;-74
2022/04/23 13:02:07;;;;;;;13.25;12.10;;;;;;;;;;5052245;28;20048;-75
2022/04/23 13:04:33;;;;;;;12.93;11.93;;;;;;;;;;5053736;28;20052;-75
2022/04/23 13:10:05;;;;;;;13.15;11.95;;;;;;;;;;5051259;28;20458;-76
2022/04/23 13:12:32;;;;;;;12.85;11.75;;;;;;;;;;5050252;28;20084;-76
2022/04/23 13:14:58;;;;;;;14.50;12.75;;;;;;;;;;5045362;28;20421;-76
2022/04/23 13:17:25;;;;;;;13.80;12.60;;;;;;;;;;5053512;28;20045;-76
2022/04/23 13:19:51;;;;;;;14.27;13.07;;;;;;;;;;5053548;28;20451;-76
2022/04/23 13:22:18;;;;;;;14.13;12.95;;;;;;;;;;5053046;28;20077;-75
2022/04/23 13:24:44;;;;;;;13.85;12.75;;;;;;;;;;5053445;28;20103;-74
2022/04/23 13:27:11;;;;;;;14.05;12.90;;;;;;;;;;5053352;28;20049;-73
2022/04/23 13:29:37;;;;;;;14.02;12.73;;;;;;;;;;5052962;28;20087;-76
2022/04/23 13:32:04;;;;;;;13.30;12.07;;;;;;;;;;5053262;28;20076;-75
2022/04/23 13:34:31;;;;;;;13.02;11.73;;;;;;;;;;5052933;28;20160;-76
2022/04/23 13:36:57;;;;;;;13.43;11.95;;;;;;;;;;5052888;28;20076;-77
2022/04/23 13:39:23;;;;;;;12.55;11.45;;;;;;;;;;5052879;28;20048;-75
2022/04/23 13:41:50;;;;;;;13.95;12.32;;;;;;;;;;5053172;28;20085;-75
2022/04/23 13:44:17;;;;;;;13.15;12.00;;;;;;;;;;5053304;28;20056;-75
2022/04/23 13:46:43;;;;;;;14.03;12.73;;;;;;;;;;5052792;28;20091;-76
2022/04/23 13:49:10;;;;;;;14.88;13.57;;;;;;;;;;5053046;28;20695;-76
2022/04/23 13:51:37;;;;;;;14.30;12.80;;;;;;;;;;5052747;28;20470;-74
2022/04/23 13:54:04;;;;;;;13.52;12.32;;;;;;;;;;5052519;28;20162;-74
2022/04/23 13:56:30;;;;;;;13.32;12.02;;;;;;;;;;5051720;28;20519;-76
2022/04/23 13:58:57;;;;;;;12.75;11.45;;;;;;;;;;5052435;28;20102;-72
2022/04/23 14:01:23;;;;;;;13.07;11.75;;;;;;;;;;5052136;28;20124;-77
2022/04/23 14:12:05;;;;;;;14.13;11.13;;;;;;;;;;5051748;28;20053;-76
2022/04/23 14:14:32;;;;;;;12.52;11.48;;;;;;;;;;5050008;28;20536;-73
2022/04/23 14:16:58;;;;;;;13.03;11.73;;;;;;;;;;5049744;28;20127;-73
2022/04/23 14:19:30;;;;;;;12.32;11.32;;;;;;;;;;5049458;28;20488;-75
2022/04/23 14:21:56;;;;;;;11.37;10.37;;;;;;;;;;5051262;28;20076;-75
2022/04/23 14:24:22;;;;;;;10.93;9.97;;;;;;;;;;5051052;28;20698;-73
2022/04/23 14:26:49;;;;;;;11.52;10.35;;;;;;;;;;5052323;28;20052;-78
2022/04/23 14:29:15;;;;;;;11.30;10.23;;;;;;;;;;5052173;28;20474;-76
2022/04/23 14:31:42;;;;;;;13.20;11.90;;;;;;;;;;5049073;28;20321;-74
2022/04/23 14:34:08;;;;;;;11.52;10.52;;;;;;;;;;5049545;28;20060;-72
2022/04/23 14:36:35;;;;;;;11.13;10.10;;;;;;;;;;5051396;28;20080;-75
2022/04/23 14:39:01;;;;;;;11.10;10.10;;;;;;;;;;5051755;28;20394;-72
2022/04/23 14:41:28;;;;;;;13.68;11.55;;;;;;;;;;5051843;28;20449;-71
2022/04/23 14:43:56;;;;;;;11.70;10.60;;;;;;;;;;5051793;28;20080;-73
2022/04/23 14:46:22;;;;;;;12.23;11.13;;;;;;;;;;5052043;28;20091;-73
2022/04/23 14:48:50;;;;;;;12.60;11.50;;;;;;;;;;5052072;28;20098;-74
2022/04/23 14:54:01;;;;;;;12.38;11.18;;;;;;;;;;5050325;28;20095;-73
2022/04/23 14:56:31;;;;;;;12.52;11.23;;;;;;;;;;5050162;28;20084;-74
2022/04/23 14:58:58;;;;;;;12.05;10.95;;;;;;;;;;5051639;28;20084;-72
2022/04/23 15:01:24;;;;;;;;;;;;;;;;;;5052158;28;20071;-73
2022/04/23 15:03:51;;;;;;;12.10;11.00;;;;;;;;;;5051810;28;19967;-74
2022/04/23 15:06:19;;;;;;;12.00;10.90;;;;;;;;;;5050198;28;20928;-73
2022/04/23 15:08:46;;;;;;;12.57;11.38;;;;;;;;;;5051550;28;20092;-74
2022/04/23 15:11:12;;;;;;;11.93;10.63;;;;;;;;;;5048392;28;20077;-74
2022/04/23 15:13:40;;;;;;;11.48;10.38;;;;;;;;;;5049820;28;20053;-74
2022/04/23 15:16:06;;;;;;;11.63;10.50;;;;;;;;;;5050306;28;20103;-76
2022/04/23 15:18:33;;;;;;;11.65;10.65;;;;;;;;;;5051556;28;20081;-72
2022/04/23 15:20:59;;;;;;;12.00;10.90;;;;;;;;;;5051608;28;20041;-75
2022/04/23 15:23:26;;;;;;;12.70;10.98;;;;;;;;;;5051455;28;20076;-73